Observation data for Muleshoe on 01/20/2019      Previous  Date  Next       Current Mesonet Observations  Soil Data  Daily Summary Page  Observations in Plain Language
KMUS 200600Z 17005KT M01/M03 A3026 RMK A01 T10091034  RH  084%=      5-min Rain = 0
KMUS 200605Z 17006KT M01/M03 A3026 RMK A01 T10071032  RH  084%=      5-min Rain = 0
KMUS 200610Z 17004KT M01/M03 A3026 RMK A01 T10061033  RH  083%=      5-min Rain = 0
KMUS 200615Z 18004KT M01/M03 A3026 RMK A01 T10071034  RH  082%=      5-min Rain = 0
KMUS 200620Z 18005KT M01/M03 A3026 RMK A01 T10071034  RH  082%=      5-min Rain = 0
KMUS 200625Z 18007KT M01/M03 A3026 RMK A01 T10061032  RH  083%=      5-min Rain = 0
KMUS 200630Z 18008KT M00/M03 A3026 RMK A01 T10031031  RH  082%=      5-min Rain = 0
KMUS 200635Z 18009KT M00/M03 A3025 RMK A01 T10011032  RH  080%=      5-min Rain = 0
KMUS 200640Z 18010KT M00/M03 A3025 RMK A01 T10011033  RH  080%=      5-min Rain = 0
KMUS 200645Z 18010KT M00/M03 A3025 RMK A01 T10011034  RH  079%=      5-min Rain = 0
KMUS 200650Z 19010KT M00/M03 A3025 RMK A01 T10011034  RH  079%=      5-min Rain = 0
KMUS 200655Z 19009G14KT 00/03 A3025 RMK A01 T00000-33  RH  079%=      5-min Rain = 0
KMUS 200700Z 19010G15KT 00/M03 A3025 RMK A01 T00031033  RH  078%=      5-min Rain = 0
KMUS 200705Z 19011G16KT 01/M03 A3025 RMK A01 T00051032  RH  077%=      5-min Rain = 0
KMUS 200710Z 19012KT 01/M03 A3025 RMK A01 T00081033  RH  075%=      5-min Rain = 0
KMUS 200715Z 18012KT 01/M03 A3025 RMK A01 T00091033  RH  074%=      5-min Rain = 0
KMUS 200720Z 18012KT 01/M03 A3025 RMK A01 T00101033  RH  074%=      5-min Rain = 0
KMUS 200725Z 18012KT 01/M03 A3024 RMK A01 T00081034  RH  074%=      5-min Rain = 0
KMUS 200730Z 18012KT 01/M03 A3024 RMK A01 T00071034  RH  074%=      5-min Rain = 0
KMUS 200735Z 18011KT 01/M03 A3024 RMK A01 T00071034  RH  074%=      5-min Rain = 0
KMUS 200740Z 18011KT 01/M03 A3024 RMK A01 T00081034  RH  074%=      5-min Rain = 0
KMUS 200745Z 18011KT 01/M03 A3024 RMK A01 T00091034  RH  073%=      5-min Rain = 0
KMUS 200750Z 18011KT 01/M03 A3023 RMK A01 T00101034  RH  073%=      5-min Rain = 0
KMUS 200755Z 18012KT 01/M03 A3023 RMK A01 T00111034  RH  072%=      5-min Rain = 0
KMUS 200800Z 17012KT 01/M03 A3023 RMK A01 T00131034  RH  072%=      5-min Rain = 0
KMUS 200805Z 18012KT 01/M03 A3023 RMK A01 T00131033  RH  072%=      5-min Rain = 0
KMUS 200810Z 18012KT 01/M03 A3023 RMK A01 T00141033  RH  071%=      5-min Rain = 0
KMUS 200815Z 17011KT 01/M03 A3023 RMK A01 T00141033  RH  071%=      5-min Rain = 0
KMUS 200820Z 17011KT 02/M03 A3023 RMK A01 T00151033  RH  071%=      5-min Rain = 0
KMUS 200825Z 17011KT 02/M03 A3024 RMK A01 T00151034  RH  071%=      5-min Rain = 0
KMUS 200830Z 17011KT 01/M03 A3024 RMK A01 T00141034  RH  071%=      5-min Rain = 0
KMUS 200835Z 17011KT 01/M03 A3024 RMK A01 T00141034  RH  071%=      5-min Rain = 0
KMUS 200840Z 17010KT 01/M03 A3024 RMK A01 T00141034  RH  071%=      5-min Rain = 0
KMUS 200845Z 17011KT 01/M03 A3024 RMK A01 T00131034  RH  071%=      5-min Rain = 0
KMUS 200850Z 17010KT 01/M04 A3024 RMK A01 T00131035  RH  071%=      5-min Rain = 0
KMUS 200855Z 17011KT 01/M04 A3024 RMK A01 T00111035  RH  072%=      5-min Rain = 0
KMUS 200900Z 18011KT 01/M04 A3024 RMK A01 T00111035  RH  072%=      5-min Rain = 0
KMUS 200905Z 18011KT 01/M03 A3023 RMK A01 T00121034  RH  072%=      5-min Rain = 0
KMUS 200910Z 18011KT 01/M04 A3023 RMK A01 T00131035  RH  071%=      5-min Rain = 0
KMUS 200915Z 18012G18KT 02/M04 A3023 RMK A01 T00161035  RH  069%=      5-min Rain = 0
KMUS 200920Z 18011KT 02/M04 A3023 RMK A01 T00171036  RH  069%=      5-min Rain = 0
KMUS 200925Z 18011KT 02/M04 A3023 RMK A01 T00151036  RH  069%=      5-min Rain = 0
KMUS 200930Z 18011KT 01/M04 A3023 RMK A01 T00121036  RH  070%=      5-min Rain = 0
KMUS 200935Z 18011G16KT 01/M04 A3023 RMK A01 T00131037  RH  070%=      5-min Rain = 0
KMUS 200940Z 18012KT 01/M04 A3023 RMK A01 T00141037  RH  070%=      5-min Rain = 0
KMUS 200945Z 18011KT 01/M04 A3023 RMK A01 T00121037  RH  070%=      5-min Rain = 0
KMUS 200950Z 17011KT 01/M04 A3022 RMK A01 T00091037  RH  072%=      5-min Rain = 0
KMUS 200955Z 18010KT 01/M04 A3022 RMK A01 T00081037  RH  072%=      5-min Rain = 0
KMUS 201000Z 18011KT 01/M04 A3022 RMK A01 T00071037  RH  073%=      5-min Rain = 0
KMUS 201005Z 18011KT 01/M04 A3022 RMK A01 T00061037  RH  073%=      5-min Rain = 0
KMUS 201010Z 18010KT 00/M04 A3022 RMK A01 T00041037  RH  074%=      5-min Rain = 0
KMUS 201015Z 18010KT 00/M04 A3022 RMK A01 T00021037  RH  075%=      5-min Rain = 0
KMUS 201020Z 18010KT 00/M04 A3022 RMK A01 T00021038  RH  075%=      5-min Rain = 0
KMUS 201025Z 18010KT 00/04 A3022 RMK A01 T00000-38  RH  076%=      5-min Rain = 0
KMUS 201030Z 18010KT M00/M04 A3022 RMK A01 T10011038  RH  077%=      5-min Rain = 0
KMUS 201035Z 18010KT M00/M04 A3022 RMK A01 T10011038  RH  077%=      5-min Rain = 0
KMUS 201040Z 18010KT M00/M04 A3022 RMK A01 T10021038  RH  077%=      5-min Rain = 0
KMUS 201045Z 18010KT M00/M04 A3022 RMK A01 T10021038  RH  077%=      5-min Rain = 0
KMUS 201050Z 18011KT M00/M04 A3022 RMK A01 T10031038  RH  077%=      5-min Rain = 0
KMUS 201055Z 18010KT M00/M04 A3022 RMK A01 T10031038  RH  078%=      5-min Rain = 0
KMUS 201100Z 18010KT M00/M04 A3022 RMK A01 T10031038  RH  078%=      5-min Rain = 0
KMUS 201105Z 18010KT M00/M04 A3021 RMK A01 T10041038  RH  078%=      5-min Rain = 0
KMUS 201110Z 18010KT M00/M04 A3021 RMK A01 T10041038  RH  078%=      5-min Rain = 0
KMUS 201115Z 18010KT M01/M04 A3021 RMK A01 T10051038  RH  079%=      5-min Rain = 0
KMUS 201120Z 18011KT M01/M04 A302 RMK A01 T10051038  RH  079%=      5-min Rain = 0
KMUS 201125Z 18010KT M01/M04 A302 RMK A01 T10051038  RH  079%=      5-min Rain = 0
KMUS 201130Z 18010KT M01/M04 A302 RMK A01 T10061038  RH  079%=      5-min Rain = 0
KMUS 201135Z 18010KT M01/M04 A302 RMK A01 T10081038  RH  080%=      5-min Rain = 0
KMUS 201140Z 18009KT M01/M04 A302 RMK A01 T10091038  RH  081%=      5-min Rain = 0
KMUS 201145Z 18009KT M01/M04 A302 RMK A01 T10101038  RH  081%=      5-min Rain = 0
KMUS 201150Z 18010KT M01/M04 A3019 RMK A01 T10101038  RH  082%=      5-min Rain = 0
KMUS 201155Z 18010KT M01/M04 A3019 RMK A01 T10101038  RH  082%=      5-min Rain = 0
KMUS 201200Z 18010KT M01/M04 A302 RMK A01 T10111039  RH  082%=      5-min Rain = 0
KMUS 201205Z 18008KT M01/M04 A302 RMK A01 T10121039  RH  082%=      5-min Rain = 0
KMUS 201210Z 18010KT M01/M04 A3019 RMK A01 T10131039  RH  083%=      5-min Rain = 0
KMUS 201215Z 18009KT M01/M04 A3019 RMK A01 T10131039  RH  083%=      5-min Rain = 0
KMUS 201220Z 18009KT M01/M04 A3019 RMK A01 T10141040  RH  083%=      5-min Rain = 0
KMUS 201225Z 18009KT M02/M04 A3019 RMK A01 T10151039  RH  084%=      5-min Rain = 0
KMUS 201230Z 18008KT M02/M04 A3019 RMK A01 T10161040  RH  084%=      5-min Rain = 0
KMUS 201235Z 19009KT M02/M04 A3019 RMK A01 T10171040  RH  084%=      5-min Rain = 0
KMUS 201240Z 19009KT M02/M04 A3019 RMK A01 T10161039  RH  085%=      5-min Rain = 0
KMUS 201245Z 18008KT M02/M04 A302 RMK A01 T10161040  RH  084%=      5-min Rain = 0
KMUS 201250Z 19007KT M02/M04 A302 RMK A01 T10171041  RH  084%=      5-min Rain = 0
KMUS 201255Z 19006KT M02/M04 A302 RMK A01 T10171041  RH  084%=      5-min Rain = 0
KMUS 201300Z 19004KT M02/M04 A302 RMK A01 T10181042  RH  084%=      5-min Rain = 0
KMUS 201305Z 20004KT M02/M04 A302 RMK A01 T10181042  RH  085%=      5-min Rain = 0
KMUS 201310Z 21003KT M02/M04 A3021 RMK A01 T10181041  RH  084%=      5-min Rain = 0
KMUS 201315Z 21004KT M02/M04 A3021 RMK A01 T10181042  RH  084%=      5-min Rain = 0
KMUS 201320Z 21005KT M02/M04 A3021 RMK A01 T10171041  RH  084%=      5-min Rain = 0
KMUS 201325Z 21003KT M02/M04 A3021 RMK A01 T10171042  RH  083%=      5-min Rain = 0
KMUS 201330Z 22002KT M02/M04 A3021 RMK A01 T10181043  RH  083%=      5-min Rain = 0
KMUS 201335Z 21002KT M02/M04 A3021 RMK A01 T10191044  RH  084%=      5-min Rain = 0
KMUS 201340Z 21002KT M02/M04 A302 RMK A01 T10191044  RH  084%=      5-min Rain = 0
KMUS 201345Z 22003KT M02/M04 A3021 RMK A01 T10191043  RH  084%=      5-min Rain = 0
KMUS 201350Z 23004KT M02/M04 A3021 RMK A01 T10181044  RH  083%=      5-min Rain = 0
KMUS 201355Z 25003KT M02/M04 A3021 RMK A01 T10181044  RH  083%=      5-min Rain = 0
KMUS 201400Z 23004KT M02/M05 A3021 RMK A01 T10171045  RH  082%=      5-min Rain = 0
KMUS 201405Z 22004KT M02/M05 A3021 RMK A01 T10171045  RH  081%=      5-min Rain = 0
KMUS 201410Z 22004KT M02/M05 A3021 RMK A01 T10151045  RH  081%=      5-min Rain = 0
KMUS 201415Z 20003KT M02/M05 A3021 RMK A01 T10151045  RH  080%=      5-min Rain = 0
KMUS 201420Z 20005KT M02/M04 A3021 RMK A01 T10151044  RH  081%=      5-min Rain = 0
KMUS 201425Z 20006KT M01/M04 A3021 RMK A01 T10121042  RH  080%=      5-min Rain = 0
KMUS 201430Z 19007KT M01/M04 A3021 RMK A01 T10101042  RH  080%=      5-min Rain = 0
KMUS 201435Z 19008KT M01/M04 A302 RMK A01 T10101042  RH  079%=      5-min Rain = 0
KMUS 201440Z 19008KT M01/M04 A302 RMK A01 T10081041  RH  079%=      5-min Rain = 0
KMUS 201445Z 19008KT M01/M04 A302 RMK A01 T10061040  RH  078%=      5-min Rain = 0
KMUS 201450Z 19008KT M00/M04 A3021 RMK A01 T10041039  RH  078%=      5-min Rain = 0
KMUS 201455Z 19009KT M00/M04 A3021 RMK A01 T10031039  RH  077%=      5-min Rain = 0
KMUS 201500Z 19009KT M00/M04 A3021 RMK A01 T10011038  RH  076%=      5-min Rain = 0
KMUS 201505Z 19009KT 00/M04 A3021 RMK A01 T00021038  RH  075%=      5-min Rain = 0
KMUS 201510Z 19010KT 01/M04 A3021 RMK A01 T00051038  RH  073%=      5-min Rain = 0
KMUS 201515Z 20010KT 01/M04 A302 RMK A01 T00071038  RH  072%=      5-min Rain = 0
KMUS 201520Z 20010KT 01/M04 A302 RMK A01 T00111037  RH  071%=      5-min Rain = 0
KMUS 201525Z 19011KT 02/M04 A302 RMK A01 T00151037  RH  069%=      5-min Rain = 0
KMUS 201530Z 20010KT 02/M04 A302 RMK A01 T00171037  RH  068%=      5-min Rain = 0
KMUS 201535Z 20009KT 02/M04 A302 RMK A01 T00211036  RH  066%=      5-min Rain = 0
KMUS 201540Z 19010KT 03/M04 A3019 RMK A01 T00251037  RH  064%=      5-min Rain = 0
KMUS 201545Z 20010KT 03/M04 A3019 RMK A01 T00281037  RH  063%=      5-min Rain = 0
KMUS 201550Z 20010KT 03/M04 A302 RMK A01 T00331036  RH  061%=      5-min Rain = 0
KMUS 201555Z 21010KT 04/M04 A302 RMK A01 T00391036  RH  058%=      5-min Rain = 0
KMUS 201600Z 21009KT 05/M04 A302 RMK A01 T00451037  RH  056%=      5-min Rain = 0
KMUS 201605Z 21009KT 05/M04 A302 RMK A01 T00491038  RH  054%=      5-min Rain = 0
KMUS 201610Z 21009KT 05/M04 A302 RMK A01 T00511039  RH  052%=      5-min Rain = 0
KMUS 201615Z 21009KT 05/M04 A302 RMK A01 T00541039  RH  051%=      5-min Rain = 0
KMUS 201620Z 21008KT 06/M04 A302 RMK A01 T00571039  RH  050%=      5-min Rain = 0
KMUS 201625Z 21009KT 06/M04 A302 RMK A01 T00631038  RH  049%=      5-min Rain = 0
KMUS 201630Z 20008KT 07/M04 A302 RMK A01 T00651038  RH  048%=      5-min Rain = 0
KMUS 201635Z 21008KT 07/M04 A302 RMK A01 T00681037  RH  047%=      5-min Rain = 0
KMUS 201640Z 21008KT 07/M04 A3019 RMK A01 T00741036  RH  046%=      5-min Rain = 0
KMUS 201645Z 22009KT 08/M04 A3019 RMK A01 T00771038  RH  044%=      5-min Rain = 0
KMUS 201650Z 22009KT 08/M04 A3019 RMK A01 T00801039  RH  043%=      5-min Rain = 0
KMUS 201655Z 22009KT 08/M04 A3019 RMK A01 T00831039  RH  042%=      5-min Rain = 0
KMUS 201700Z 22010KT 09/M04 A3019 RMK A01 T00871041  RH  040%=      5-min Rain = 0
KMUS 201705Z 23011KT 09/M04 A3019 RMK A01 T00901044  RH  038%=      5-min Rain = 0
KMUS 201710Z 23010KT 09/M04 A3019 RMK A01 T00941044  RH  038%=      5-min Rain = 0
KMUS 201715Z 23010G15KT 10/M04 A3019 RMK A01 T01001044  RH  036%=      5-min Rain = 0
KMUS 201720Z 23011KT 10/M04 A3019 RMK A01 T01031044  RH  036%=      5-min Rain = 0
KMUS 201725Z 23010KT 10/M04 A3019 RMK A01 T01041042  RH  036%=      5-min Rain = 0
KMUS 201730Z 22011KT 11/M04 A3018 RMK A01 T01071043  RH  035%=      5-min Rain = 0
KMUS 201735Z 23011KT 11/M05 A3018 RMK A01 T01091045  RH  034%=      5-min Rain = 0
KMUS 201740Z 24012KT 11/M05 A3018 RMK A01 T01111050  RH  032%=      5-min Rain = 0
KMUS 201745Z 23014G20KT 12/M05 A3018 RMK A01 T01161051  RH  031%=      5-min Rain = 0
KMUS 201750Z 23015KT 12/M05 A3017 RMK A01 T01161051  RH  031%=      5-min Rain = 0
KMUS 201755Z 24014KT 12/M05 A3017 RMK A01 T01181048  RH  031%=      5-min Rain = 0
KMUS 201800Z 23013KT 12/M05 A3017 RMK A01 T01181048  RH  031%=      5-min Rain = 0
KMUS 201805Z 23014KT 12/M05 A3016 RMK A01 T01191047  RH  031%=      5-min Rain = 0
KMUS 201810Z 23014KT 12/M05 A3016 RMK A01 T01211051  RH  030%=      5-min Rain = 0
KMUS 201815Z 23015KT 12/M05 A3016 RMK A01 T01171052  RH  030%=      5-min Rain = 0
KMUS 201820Z 24013G18KT 12/M05 A3016 RMK A01 T01211048  RH  030%=      5-min Rain = 0
KMUS 201825Z 24014G19KT 12/M05 A3015 RMK A01 T01221049  RH  030%=      5-min Rain = 0
KMUS 201830Z 24015KT 12/M05 A3015 RMK A01 T01181053  RH  030%=      5-min Rain = 0
KMUS 201835Z 24014KT 12/M05 A3015 RMK A01 T01201050  RH  030%=      5-min Rain = 0
KMUS 201840Z 24016G21KT 12/M05 A3014 RMK A01 T01231050  RH  030%=      5-min Rain = 0
KMUS 201845Z 24017G22KT 12/M05 A3014 RMK A01 T01231050  RH  029%=      5-min Rain = 0
KMUS 201850Z 23016KT 13/M05 A3014 RMK A01 T01271049  RH  029%=      5-min Rain = 0
KMUS 201855Z 25013G18KT 13/M05 A3013 RMK A01 T01311048  RH  029%=      5-min Rain = 0
KMUS 201900Z 25015KT 14/M05 A3013 RMK A01 T01361048  RH  028%=      5-min Rain = 0
KMUS 201905Z 25015G21KT 14/M05 A3013 RMK A01 T01391049  RH  027%=      5-min Rain = 0
KMUS 201910Z 24015G21KT 14/M05 A3012 RMK A01 T01411049  RH  026%=      5-min Rain = 0
KMUS 201915Z 24015G20KT 14/M05 A3012 RMK A01 T01371051  RH  027%=      5-min Rain = 0
KMUS 201920Z 24014G19KT 14/M05 A3012 RMK A01 T01401050  RH  027%=      5-min Rain = 0
KMUS 201925Z 26015G23KT 14/M05 A3011 RMK A01 T01421050  RH  026%=      5-min Rain = 0
KMUS 201930Z 25016G26KT 15/M05 A3011 RMK A01 T01491051  RH  025%=      5-min Rain = 0
KMUS 201935Z 25017G22KT 15/M05 A301 RMK A01 T01471053  RH  025%=      5-min Rain = 0
KMUS 201940Z 25015G20KT 15/M05 A301 RMK A01 T01491050  RH  025%=      5-min Rain = 0
KMUS 201945Z 26017G22KT 15/M05 A301 RMK A01 T01541052  RH  024%=      5-min Rain = 0
KMUS 201950Z 26017G24KT 16/M05 A3009 RMK A01 T01551051  RH  024%=      5-min Rain = 0
KMUS 201955Z 26016G21KT 15/M05 A3009 RMK A01 T01521051  RH  024%=      5-min Rain = 0
KMUS 202000Z 26017G22KT 15/M05 A3009 RMK A01 T01511051  RH  024%=      5-min Rain = 0
KMUS 202005Z 25016G22KT 16/M05 A3009 RMK A01 T01551050  RH  024%=      5-min Rain = 0
KMUS 202010Z 26015G21KT 16/M05 A3008 RMK A01 T01581050  RH  024%=      5-min Rain = 0
KMUS 202015Z 26015G20KT 16/M05 A3008 RMK A01 T01611048  RH  024%=      5-min Rain = 0
KMUS 202020Z 24015KT 16/M05 A3007 RMK A01 T01621048  RH  023%=      5-min Rain = 0
KMUS 202025Z 25014G21KT 17/M05 A3007 RMK A01 T01651046  RH  023%=      5-min Rain = 0
KMUS 202030Z 25015G21KT 17/M05 A3007 RMK A01 T01661047  RH  023%=      5-min Rain = 0
KMUS 202035Z 25013KT 17/M05 A3007 RMK A01 T01651046  RH  023%=      5-min Rain = 0
KMUS 202040Z 26013KT 17/M05 A3007 RMK A01 T01681045  RH  023%=      5-min Rain = 0
KMUS 202045Z 25013G22KT 17/M05 A3006 RMK A01 T01671045  RH  023%=      5-min Rain = 0
KMUS 202050Z 25015G21KT 17/M05 A3006 RMK A01 T01691045  RH  023%=      5-min Rain = 0
KMUS 202055Z 25017G22KT 17/M05 A3006 RMK A01 T01691046  RH  023%=      5-min Rain = 0
KMUS 202100Z 25015G21KT 17/M05 A3006 RMK A01 T01721045  RH  022%=      5-min Rain = 0
KMUS 202105Z 26017KT 17/M05 A3005 RMK A01 T01741046  RH  022%=      5-min Rain = 0
KMUS 202110Z 24016G21KT 17/M05 A3005 RMK A01 T01741047  RH  022%=      5-min Rain = 0
KMUS 202115Z 25015G22KT 18/M05 A3005 RMK A01 T01761046  RH  022%=      5-min Rain = 0
KMUS 202120Z 25013G18KT 18/M05 A3004 RMK A01 T01781046  RH  021%=      5-min Rain = 0
KMUS 202125Z 26015G20KT 18/M05 A3004 RMK A01 T01801047  RH  021%=      5-min Rain = 0
KMUS 202130Z 25015G20KT 18/M05 A3004 RMK A01 T01791047  RH  021%=      5-min Rain = 0
KMUS 202135Z 25016KT 18/M05 A3004 RMK A01 T01811047  RH  021%=      5-min Rain = 0
KMUS 202140Z 26015G20KT 18/M05 A3004 RMK A01 T01821047  RH  021%=      5-min Rain = 0
KMUS 202145Z 25014KT 18/M05 A3004 RMK A01 T01841047  RH  021%=      5-min Rain = 0
KMUS 202150Z 24013G18KT 18/M05 A3004 RMK A01 T01821047  RH  021%=      5-min Rain = 0
KMUS 202155Z 25013KT 18/M05 A3004 RMK A01 T01801047  RH  021%=      5-min Rain = 0
KMUS 202200Z 25013G19KT 18/M05 A3004 RMK A01 T01791047  RH  021%=      5-min Rain = 0
KMUS 202205Z 25014KT 18/M05 A3004 RMK A01 T01781048  RH  021%=      5-min Rain = 0
KMUS 202210Z 25014KT 18/M05 A3004 RMK A01 T01801048  RH  021%=      5-min Rain = 0
KMUS 202215Z 25012G17KT 18/M05 A3004 RMK A01 T01801047  RH  021%=      5-min Rain = 0
KMUS 202220Z 25011KT 18/M05 A3004 RMK A01 T01811046  RH  021%=      5-min Rain = 0
KMUS 202225Z 24012KT 18/M05 A3004 RMK A01 T01831047  RH  021%=      5-min Rain = 0
KMUS 202230Z 24012KT 18/M05 A3004 RMK A01 T01821047  RH  021%=      5-min Rain = 0
KMUS 202235Z 24010KT 18/M05 A3004 RMK A01 T01811047  RH  021%=      5-min Rain = 0
KMUS 202240Z 24010KT 18/M05 A3004 RMK A01 T01831046  RH  021%=      5-min Rain = 0
KMUS 202245Z 25008KT 18/M05 A3003 RMK A01 T01841045  RH  021%=      5-min Rain = 0
KMUS 202250Z 24009KT 18/M05 A3003 RMK A01 T01821045  RH  021%=      5-min Rain = 0
KMUS 202255Z 22009KT 18/M05 A3003 RMK A01 T01841046  RH  021%=      5-min Rain = 0
KMUS 202300Z 22010KT 18/M05 A3003 RMK A01 T01831048  RH  020%=      5-min Rain = 0
KMUS 202305Z 23008KT 18/M05 A3002 RMK A01 T01791048  RH  021%=      5-min Rain = 0
KMUS 202310Z 23007KT 18/M05 A3002 RMK A01 T01771046  RH  022%=      5-min Rain = 0
KMUS 202315Z 22008KT 18/M05 A3002 RMK A01 T01751045  RH  022%=      5-min Rain = 0
KMUS 202320Z 22008KT 18/M04 A3002 RMK A01 T01751044  RH  022%=      5-min Rain = 0
KMUS 202325Z 21008KT 18/M05 A3002 RMK A01 T01751048  RH  021%=      5-min Rain = 0
KMUS 202330Z 21008KT 17/M05 A3002 RMK A01 T01731049  RH  022%=      5-min Rain = 0
KMUS 202335Z 22008KT 17/M05 A3002 RMK A01 T01701049  RH  022%=      5-min Rain = 0
KMUS 202340Z 21007KT 17/M05 A3002 RMK A01 T01651049  RH  023%=      5-min Rain = 0
KMUS 202345Z 21007KT 16/M05 A3002 RMK A01 T01601048  RH  024%=      5-min Rain = 0
KMUS 202350Z 20007KT 15/M05 A3002 RMK A01 T01531048  RH  025%=      5-min Rain = 0
KMUS 202355Z 20007KT 14/M05 A3002 RMK A01 T01441049  RH  026%=      5-min Rain = 0
KMUS 210000Z 20007KT 14/M05 A3002 RMK A01 T01361049  RH  027%=      5-min Rain = 0
KMUS 210005Z 20007KT 13/M05 A3002 RMK A01 T01281050  RH  029%=      5-min Rain = 0
KMUS 210010Z 19006KT 12/M05 A3002 RMK A01 T01221050  RH  030%=      5-min Rain = 0
KMUS 210015Z 19007KT 12/M05 A3002 RMK A01 T01161050  RH  031%=      5-min Rain = 0
KMUS 210020Z 19007KT 11/M05 A3002 RMK A01 T01101048  RH  033%=      5-min Rain = 0
KMUS 210025Z 20007KT 11/M05 A3002 RMK A01 T01051050  RH  033%=      5-min Rain = 0
KMUS 210030Z 20007KT 10/M05 A3002 RMK A01 T01031051  RH  034%=      5-min Rain = 0
KMUS 210035Z 20007KT 10/M05 A3002 RMK A01 T01011051  RH  034%=      5-min Rain = 0
KMUS 210040Z 21008KT 10/M05 A3002 RMK A01 T00991051  RH  035%=      5-min Rain = 0
KMUS 210045Z 20009KT 10/M05 A3002 RMK A01 T01001050  RH  035%=      5-min Rain = 0
KMUS 210050Z 20008KT 10/M05 A3002 RMK A01 T01021049  RH  034%=      5-min Rain = 0
KMUS 210055Z 20008KT 10/M05 A3002 RMK A01 T01011048  RH  035%=      5-min Rain = 0
KMUS 210100Z 20008KT 10/M05 A3001 RMK A01 T00981048  RH  035%=      5-min Rain = 0
KMUS 210105Z 20009KT 10/M05 A3001 RMK A01 T00961048  RH  036%=      5-min Rain = 0
KMUS 210110Z 20009KT 09/M05 A3001 RMK A01 T00941048  RH  036%=      5-min Rain = 0
KMUS 210115Z 20009KT 09/M05 A3001 RMK A01 T00911047  RH  037%=      5-min Rain = 0
KMUS 210120Z 20010KT 09/M05 A3001 RMK A01 T00911047  RH  038%=      5-min Rain = 0
KMUS 210125Z 20010KT 09/M05 A3001 RMK A01 T00901046  RH  038%=      5-min Rain = 0
KMUS 210130Z 20009KT 09/M05 A3001 RMK A01 T00881045  RH  039%=      5-min Rain = 0
KMUS 210135Z 19009KT 09/M04 A30 RMK A01 T00921044  RH  038%=      5-min Rain = 0
KMUS 210140Z 19009KT 09/M04 A30 RMK A01 T00931044  RH  038%=      5-min Rain = 0
KMUS 210145Z 19009KT 09/M04 A30 RMK A01 T00901043  RH  039%=      5-min Rain = 0
KMUS 210150Z 19008KT 09/M04 A30 RMK A01 T00901043  RH  039%=      5-min Rain = 0
KMUS 210155Z 19009KT 09/M04 A30 RMK A01 T00881043  RH  039%=      5-min Rain = 0
KMUS 210200Z 20009KT 09/M04 A30 RMK A01 T00851043  RH  040%=      5-min Rain = 0
KMUS 210205Z 20009KT 09/M04 A30 RMK A01 T00851043  RH  040%=      5-min Rain = 0
KMUS 210210Z 20009KT 08/M04 A30 RMK A01 T00841043  RH  041%=      5-min Rain = 0
KMUS 210215Z 20008KT 08/M04 A30 RMK A01 T00821044  RH  041%=      5-min Rain = 0
KMUS 210220Z 20008KT 08/M04 A30 RMK A01 T00791044  RH  042%=      5-min Rain = 0
KMUS 210225Z 20009KT 08/M04 A30 RMK A01 T00771043  RH  042%=      5-min Rain = 0
KMUS 210230Z 19008KT 08/M04 A30 RMK A01 T00761042  RH  043%=      5-min Rain = 0
KMUS 210235Z 20009KT 08/M04 A30 RMK A01 T00761042  RH  043%=      5-min Rain = 0
KMUS 210240Z 19008KT 07/M04 A30 RMK A01 T00731043  RH  044%=      5-min Rain = 0
KMUS 210245Z 19007KT 07/M04 A2999 RMK A01 T00701043  RH  045%=      5-min Rain = 0
KMUS 210250Z 20008KT 07/M04 A30 RMK A01 T00681043  RH  045%=      5-min Rain = 0
KMUS 210255Z 20008KT 07/M04 A2999 RMK A01 T00701044  RH  044%=      5-min Rain = 0
KMUS 210300Z 20009KT 08/M05 A2999 RMK A01 T00761045  RH  042%=      5-min Rain = 0
KMUS 210305Z 20009KT 08/M05 A2999 RMK A01 T00801046  RH  041%=      5-min Rain = 0
KMUS 210310Z 20010KT 08/M05 A2999 RMK A01 T00821048  RH  040%=      5-min Rain = 0
KMUS 210315Z 20009KT 08/M05 A2999 RMK A01 T00821049  RH  039%=      5-min Rain = 0
KMUS 210320Z 20009KT 08/M05 A2999 RMK A01 T00811049  RH  040%=      5-min Rain = 0
KMUS 210325Z 21009KT 08/M05 A2999 RMK A01 T00781049  RH  040%=      5-min Rain = 0
KMUS 210330Z 20009KT 08/M05 A2999 RMK A01 T00761049  RH  041%=      5-min Rain = 0
KMUS 210335Z 20009KT 07/M05 A2999 RMK A01 T00741050  RH  041%=      5-min Rain = 0
KMUS 210340Z 21009KT 07/M05 A2999 RMK A01 T00711050  RH  042%=      5-min Rain = 0
KMUS 210345Z 21009KT 07/M05 A2999 RMK A01 T00691051  RH  042%=      5-min Rain = 0
KMUS 210350Z 22009KT 07/M05 A2999 RMK A01 T00711052  RH  041%=      5-min Rain = 0
KMUS 210355Z 22008KT 07/M05 A2999 RMK A01 T00701053  RH  041%=      5-min Rain = 0
KMUS 210400Z 22009KT 07/M05 A30 RMK A01 T00691054  RH  041%=      5-min Rain = 0
KMUS 210405Z 25006KT 07/M06 A30 RMK A01 T00661055  RH  042%=      5-min Rain = 0
KMUS 210410Z 26005KT 06/M06 A30 RMK A01 T00591056  RH  043%=      5-min Rain = 0
KMUS 210415Z 23006KT 05/M06 A2999 RMK A01 T00491056  RH  047%=      5-min Rain = 0
KMUS 210420Z 21006KT 05/M06 A2999 RMK A01 T00491057  RH  046%=      5-min Rain = 0
KMUS 210425Z 24006KT 05/M06 A2999 RMK A01 T00461058  RH  047%=      5-min Rain = 0
KMUS 210430Z 23006KT 04/M06 A2999 RMK A01 T00431059  RH  047%=      5-min Rain = 0
KMUS 210435Z 23005KT 05/M06 A2999 RMK A01 T00451059  RH  047%=      5-min Rain = 0
KMUS 210440Z 24006KT 05/M06 A2999 RMK A01 T00481060  RH  045%=      5-min Rain = 0
KMUS 210445Z 23005KT 05/M06 A2999 RMK A01 T00491062  RH  044%=      5-min Rain = 0
KMUS 210450Z 22004KT 05/M06 A2999 RMK A01 T00491062  RH  044%=      5-min Rain = 0
KMUS 210455Z 22005KT 05/M06 A2999 RMK A01 T00531063  RH  043%=      5-min Rain = 0
KMUS 210500Z 21007KT 06/M06 A2999 RMK A01 T00591059  RH  042%=      5-min Rain = 0
KMUS 210505Z 20009KT 07/M06 A2999 RMK A01 T00721060  RH  038%=      5-min Rain = 0
KMUS 210510Z 20010G15KT 08/M06 A2999 RMK A01 T00801063  RH  036%=      5-min Rain = 0
KMUS 210515Z 20011KT 09/M07 A2998 RMK A01 T00861066  RH  033%=      5-min Rain = 0
KMUS 210520Z 21010G15KT 09/M07 A2999 RMK A01 T00891067  RH  033%=      5-min Rain = 0
KMUS 210525Z 21010KT 09/M07 A2999 RMK A01 T00881067  RH  033%=      5-min Rain = 0
KMUS 210530Z 21011KT 09/M07 A2998 RMK A01 T00881068  RH  033%=      5-min Rain = 0
KMUS 210535Z 22011KT 09/M07 A2999 RMK A01 T00871068  RH  033%=      5-min Rain = 0
KMUS 210540Z 22010KT 09/M07 A2998 RMK A01 T00861068  RH  033%=      5-min Rain = 0
KMUS 210545Z 21010KT 09/M07 A2998 RMK A01 T00851069  RH  033%=      5-min Rain = 0
KMUS 210550Z 21009KT 08/M07 A2998 RMK A01 T00831069  RH  033%=      5-min Rain = 0
KMUS 210555Z 22009KT 08/M07 A2998 RMK A01 T00801069  RH  034%=      5-min Rain = 0

Page generated in 0.0302 seconds.